CST,Max TemperatureF,Mean TemperatureF,Min TemperatureF,Max Dew PointF,MeanDew PointF,Min DewpointF,Max Humidity, Mean Humidity, Min Humidity, Max Sea Level PressureIn, Mean Sea Level PressureIn, Min Sea Level PressureIn, Max VisibilityMiles, Mean VisibilityMiles, Min VisibilityMiles, Max Wind SpeedMPH, Mean Wind SpeedMPH, Max Gust SpeedMPH,PrecipitationIn, CloudCover, Events, WindDirDegrees
2011-12-1,39,30,23,32,26,23,100,95,75,30.35,30.28,30.23,10,9,7,5,0,,0.00,0,,200
2011-12-2,53,46,39,37,36,36,87,69,51,30.41,30.39,30.37,10,9,2,4,1,,0.00,0,,100
2011-12-3,62,50,39,37,34,32,81,56,32,30.37,30.29,30.15,10,10,10,15,4,20,0.00,0,,147
2011-12-4,59,54,50,52,49,41,100,87,51,30.15,30.12,30.06,10,6,1,20,8,28,2.00,8,Rain,162
2011-12-5,42,38,35,43,36,34,100,96,93,30.17,30.12,30.06,10,6,2,20,11,26,1.59,8,Rain-Snow,355
2011-12-6,39,37,35,37,36,36,100,96,87,30.18,30.15,30.11,10,6,2,12,8,17,0.00,8,,340
2011-12-7,41,36,32,34,32,30,93,87,70,30.25,30.14,30.05,10,10,10,13,7,18,0.00,6,Rain,326
2011-12-8,44,35,26,32,30,27,100,81,53,30.35,30.27,30.22,10,8,2,13,3,,0.00,0,,203
2011-12-9,46,36,26,34,30,25,100,85,57,30.39,30.28,30.22,10,10,7,16,2,20,0.00,2,,316
2011-12-10,37,29,21,27,20,18,86,66,48,30.63,30.55,30.49,10,10,10,6,2,,0.00,0,,6
2011-12-11,42,32,21,27,21,16,93,70,34,30.56,30.50,30.41,10,10,7,6,1,,0.00,0,,114
2011-12-12,53,38,24,32,28,21,93,70,41,30.43,30.39,30.36,10,10,10,6,0,,0.00,2,,134
2011-12-13,48,44,41,46,43,36,100,94,76,30.48,30.40,30.33,10,5,2,5,1,,0.31,8,Rain,128
2011-12-14,60,51,42,55,50,43,100,92,77,30.27,30.15,29.97,10,5,0,14,5,23,0.00,6,Fog,189
2011-12-15,62,50,37,61,49,30,100,81,63,30.30,30.07,29.90,10,9,3,20,12,28,0.30,4,Rain,274
2011-12-16,39,34,30,32,30,28,93,79,70,30.39,30.35,30.29,10,10,10,10,6,,0.00,5,Snow,359
2011-12-17,44,34,23,34,30,23,100,84,61,30.41,30.36,30.29,10,8,4,12,3,16,0.00,0,,232
2011-12-18,53,40,26,36,33,27,100,77,47,30.36,30.29,30.19,10,8,4,10,2,18,0.00,0,,203
2011-12-19,51,48,46,41,36,36,81,63,54,30.17,30.13,30.08,10,10,10,10,7,16,0.00,8,,191
2011-12-20,60,50,41,59,48,36,100,91,76,30.09,29.92,29.73,10,7,1,9,2,17,0.36,7,Rain,149
2011-12-21,60,52,44,59,44,39,94,82,75,29.99,29.86,29.73,10,10,10,17,10,26,0.03,7,,226
2011-12-22,46,44,43,44,42,39,95,89,78,30.17,30.05,29.97,10,9,5,8,1,,0.14,8,Rain,339
2011-12-23,39,38,36,36,34,30,91,85,74,30.40,30.34,30.24,10,8,4,10,6,,0.00,8,,316
2011-12-24,45,36,28,34,31,27,99,82,56,30.48,30.42,30.37,10,9,4,10,4,,0.00,0,,214
2011-12-25,55,44,33,34,32,30,94,68,39,30.38,30.34,30.29,10,10,10,10,4,,0.00,0,,244
2011-12-26,42,34,25,35,30,24,97,80,66,30.38,30.23,29.96,10,10,10,6,1,,0.01,3,Rain,89
2011-12-27,48,40,33,40,36,32,100,86,61,30.05,29.82,29.68,10,7,1,17,7,28,0.29,8,Rain-Snow,286
2011-12-28,46,37,28,33,31,28,96,79,58,30.15,30.10,30.07,10,10,10,9,3,16,0.00,0,,253
2011-12-29,57,46,34,39,35,32,90,68,44,29.99,29.89,29.81,10,10,10,20,8,25,0.00,0,,198
2011-12-30,57,52,48,47,41,33,90,66,50,29.93,29.78,29.71,10,10,10,24,11,33,0.00,3,,224
2011-12-31,59,46,34,37,34,32,96,58,36,30.10,29.98,29.85,10,10,10,12,4,20,0.00,1,,164